sensor_id;sensor_type;location;lat;lon;timestamp;temperature;humidity
41557;DHT22;27720;51.992;5.890;2023-01-15T00:01:43;9.50;99.90
41557;DHT22;27720;51.992;5.890;2023-01-15T00:04:11;9.50;99.90
41557;DHT22;27720;51.992;5.890;2023-01-15T00:06:39;9.60;99.90
41557;DHT22;27720;51.992;5.890;2023-01-15T00:09:05;9.50;99.90
41557;DHT22;27720;51.992;5.890;2023-01-15T00:11:31;9.60;99.90
41557;DHT22;27720;51.992;5.890;2023-01-15T00:13:57;9.50;99.90
41557;DHT22;27720;51.992;5.890;2023-01-15T00:16:25;9.50;99.90
41557;DHT22;27720;51.992;5.890;2023-01-15T00:18:52;9.50;99.90
41557;DHT22;27720;51.992;5.890;2023-01-15T00:21:19;9.50;99.90
41557;DHT22;27720;51.992;5.890;2023-01-15T00:23:46;9.50;99.90
41557;DHT22;27720;51.992;5.890;2023-01-15T00:26:31;9.50;99.90
41557;DHT22;27720;51.992;5.890;2023-01-15T00:29:16;9.50;99.90
41557;DHT22;27720;51.992;5.890;2023-01-15T00:31:42;9.40;99.90
41557;DHT22;27720;51.992;5.890;2023-01-15T00:34:08;9.40;99.90
41557;DHT22;27720;51.992;5.890;2023-01-15T00:36:34;9.40;99.90
41557;DHT22;27720;51.992;5.890;2023-01-15T00:39:03;9.40;99.90
41557;DHT22;27720;51.992;5.890;2023-01-15T00:41:29;9.40;99.90
41557;DHT22;27720;51.992;5.890;2023-01-15T00:43:54;9.40;99.90
41557;DHT22;27720;51.992;5.890;2023-01-15T00:46:21;9.40;99.90
41557;DHT22;27720;51.992;5.890;2023-01-15T00:48:47;9.30;99.90
41557;DHT22;27720;51.992;5.890;2023-01-15T00:51:13;9.30;99.90
41557;DHT22;27720;51.992;5.890;2023-01-15T00:53:39;9.30;99.90
41557;DHT22;27720;51.992;5.890;2023-01-15T00:56:05;9.30;99.90
41557;DHT22;27720;51.992;5.890;2023-01-15T00:58:31;9.30;99.90
41557;DHT22;27720;51.992;5.890;2023-01-15T01:00:57;9.30;99.90
41557;DHT22;27720;51.992;5.890;2023-01-15T01:03:25;9.20;99.90
41557;DHT22;27720;51.992;5.890;2023-01-15T01:05:51;9.20;99.90
41557;DHT22;27720;51.992;5.890;2023-01-15T01:08:17;9.20;99.90
41557;DHT22;27720;51.992;5.890;2023-01-15T01:10:43;9.20;99.90
41557;DHT22;27720;51.992;5.890;2023-01-15T01:13:11;9.20;99.90
41557;DHT22;27720;51.992;5.890;2023-01-15T01:15:37;9.20;99.90
41557;DHT22;27720;51.992;5.890;2023-01-15T01:18:04;9.20;99.90
41557;DHT22;27720;51.992;5.890;2023-01-15T01:20:32;9.20;99.90
41557;DHT22;27720;51.992;5.890;2023-01-15T01:22:58;9.20;99.90
41557;DHT22;27720;51.992;5.890;2023-01-15T01:25:24;9.10;99.90
41557;DHT22;27720;51.992;5.890;2023-01-15T01:27:50;9.20;99.90
41557;DHT22;27720;51.992;5.890;2023-01-15T01:30:16;9.10;99.90
41557;DHT22;27720;51.992;5.890;2023-01-15T01:32:45;9.10;99.90
41557;DHT22;27720;51.992;5.890;2023-01-15T01:35:11;9.10;99.90
41557;DHT22;27720;51.992;5.890;2023-01-15T01:37:37;9.00;99.90
41557;DHT22;27720;51.992;5.890;2023-01-15T01:40:04;9.00;99.90
41557;DHT22;27720;51.992;5.890;2023-01-15T01:42:29;9.00;99.90
41557;DHT22;27720;51.992;5.890;2023-01-15T01:45:18;9.00;99.90
41557;DHT22;27720;51.992;5.890;2023-01-15T01:47:50;9.00;99.90
41557;DHT22;27720;51.992;5.890;2023-01-15T01:50:16;8.90;99.90
41557;DHT22;27720;51.992;5.890;2023-01-15T01:52:47;8.90;99.90
41557;DHT22;27720;51.992;5.890;2023-01-15T01:55:16;8.90;99.90
41557;DHT22;27720;51.992;5.890;2023-01-15T01:57:43;8.90;99.90
41557;DHT22;27720;51.992;5.890;2023-01-15T02:00:12;9.00;99.90
41557;DHT22;27720;51.992;5.890;2023-01-15T02:02:41;9.00;99.90
41557;DHT22;27720;51.992;5.890;2023-01-15T02:05:11;8.90;99.90
41557;DHT22;27720;51.992;5.890;2023-01-15T02:07:38;8.90;99.90
41557;DHT22;27720;51.992;5.890;2023-01-15T02:10:05;8.90;99.90
41557;DHT22;27720;51.992;5.890;2023-01-15T02:12:36;8.90;99.90
41557;DHT22;27720;51.992;5.890;2023-01-15T02:15:17;8.90;99.90
41557;DHT22;27720;51.992;5.890;2023-01-15T02:17:48;8.90;99.90
41557;DHT22;27720;51.992;5.890;2023-01-15T02:20:23;8.80;99.90
41557;DHT22;27720;51.992;5.890;2023-01-15T02:26:12;8.90;99.90
41557;DHT22;27720;51.992;5.890;2023-01-15T02:28:49;8.90;99.90
41557;DHT22;27720;51.992;5.890;2023-01-15T02:31:18;8.80;99.90
41557;DHT22;27720;51.992;5.890;2023-01-15T02:33:54;8.80;99.90
41557;DHT22;27720;51.992;5.890;2023-01-15T02:36:23;8.90;99.90
41557;DHT22;27720;51.992;5.890;2023-01-15T02:38:55;8.80;99.90
41557;DHT22;27720;51.992;5.890;2023-01-15T02:41:29;8.80;99.90
41557;DHT22;27720;51.992;5.890;2023-01-15T02:43:56;8.70;99.90
41557;DHT22;27720;51.992;5.890;2023-01-15T02:46:29;8.70;99.90
41557;DHT22;27720;51.992;5.890;2023-01-15T02:48:59;8.70;99.90
41557;DHT22;27720;51.992;5.890;2023-01-15T02:51:37;8.70;99.90
41557;DHT22;27720;51.992;5.890;2023-01-15T02:54:10;8.70;99.90
41557;DHT22;27720;51.992;5.890;2023-01-15T02:56:39;8.70;99.90
41557;DHT22;27720;51.992;5.890;2023-01-15T02:59:17;8.60;99.90
41557;DHT22;27720;51.992;5.890;2023-01-15T03:02:10;8.70;99.90
41557;DHT22;27720;51.992;5.890;2023-01-15T03:07:53;8.60;99.90
41557;DHT22;27720;51.992;5.890;2023-01-15T03:10:57;8.60;99.90
41557;DHT22;27720;51.992;5.890;2023-01-15T03:13:38;8.60;99.90
41557;DHT22;27720;51.992;5.890;2023-01-15T03:16:26;8.50;99.90
41557;DHT22;27720;51.992;5.890;2023-01-15T03:24:28;8.50;99.90
41557;DHT22;27720;51.992;5.890;2023-01-15T03:26:54;8.50;99.90
41557;DHT22;27720;51.992;5.890;2023-01-15T03:29:24;8.50;99.90
41557;DHT22;27720;51.992;5.890;2023-01-15T03:31:51;8.50;99.90
41557;DHT22;27720;51.992;5.890;2023-01-15T03:34:19;8.50;99.90
41557;DHT22;27720;51.992;5.890;2023-01-15T03:36:46;8.50;99.90
41557;DHT22;27720;51.992;5.890;2023-01-15T03:39:12;8.50;99.90
41557;DHT22;27720;51.992;5.890;2023-01-15T03:50:22;8.40;99.90
41557;DHT22;27720;51.992;5.890;2023-01-15T03:53:19;8.40;99.90
41557;DHT22;27720;51.992;5.890;2023-01-15T03:58:52;8.40;99.90
41557;DHT22;27720;51.992;5.890;2023-01-15T04:01:31;8.40;99.90
41557;DHT22;27720;51.992;5.890;2023-01-15T04:04:01;8.40;99.90
41557;DHT22;27720;51.992;5.890;2023-01-15T04:06:29;8.30;99.90
41557;DHT22;27720;51.992;5.890;2023-01-15T04:08:58;8.30;99.90
41557;DHT22;27720;51.992;5.890;2023-01-15T04:11:26;8.30;99.90
41557;DHT22;27720;51.992;5.890;2023-01-15T04:14:01;8.30;99.90
41557;DHT22;27720;51.992;5.890;2023-01-15T04:16:33;8.30;99.90
41557;DHT22;27720;51.992;5.890;2023-01-15T04:18:59;8.30;99.90
41557;DHT22;27720;51.992;5.890;2023-01-15T04:21:26;8.30;99.90
41557;DHT22;27720;51.992;5.890;2023-01-15T04:23:52;8.30;99.90
41557;DHT22;27720;51.992;5.890;2023-01-15T04:26:18;8.30;99.90
41557;DHT22;27720;51.992;5.890;2023-01-15T04:28:44;8.20;99.90
41557;DHT22;27720;51.992;5.890;2023-01-15T04:31:10;8.30;99.90
41557;DHT22;27720;51.992;5.890;2023-01-15T04:33:36;8.20;99.90
41557;DHT22;27720;51.992;5.890;2023-01-15T04:36:04;8.20;99.90
41557;DHT22;27720;51.992;5.890;2023-01-15T04:38:30;8.20;99.90
41557;DHT22;27720;51.992;5.890;2023-01-15T04:41:02;8.20;99.90
41557;DHT22;27720;51.992;5.890;2023-01-15T04:43:47;8.30;99.90
41557;DHT22;27720;51.992;5.890;2023-01-15T04:46:35;8.20;99.90
41557;DHT22;27720;51.992;5.890;2023-01-15T04:49:02;8.20;99.90
41557;DHT22;27720;51.992;5.890;2023-01-15T04:51:28;8.20;99.90
41557;DHT22;27720;51.992;5.890;2023-01-15T04:53:54;8.20;99.90
41557;DHT22;27720;51.992;5.890;2023-01-15T04:56:20;8.20;99.90
41557;DHT22;27720;51.992;5.890;2023-01-15T04:58:46;8.20;99.90
41557;DHT22;27720;51.992;5.890;2023-01-15T05:01:13;8.10;99.90
41557;DHT22;27720;51.992;5.890;2023-01-15T05:03:39;8.10;99.90
41557;DHT22;27720;51.992;5.890;2023-01-15T05:06:05;8.10;99.90
41557;DHT22;27720;51.992;5.890;2023-01-15T05:08:31;8.10;99.90
41557;DHT22;27720;51.992;5.890;2023-01-15T05:11:00;8.20;99.90
41557;DHT22;27720;51.992;5.890;2023-01-15T05:13:27;8.20;99.90
41557;DHT22;27720;51.992;5.890;2023-01-15T05:15:52;8.10;99.90
41557;DHT22;27720;51.992;5.890;2023-01-15T05:18:18;8.10;99.90
41557;DHT22;27720;51.992;5.890;2023-01-15T05:20:44;8.00;99.90
41557;DHT22;27720;51.992;5.890;2023-01-15T05:23:10;8.10;99.90
41557;DHT22;27720;51.992;5.890;2023-01-15T05:25:36;8.10;99.90
41557;DHT22;27720;51.992;5.890;2023-01-15T05:28:02;8.10;99.90
41557;DHT22;27720;51.992;5.890;2023-01-15T05:30:28;8.00;99.90
41557;DHT22;27720;51.992;5.890;2023-01-15T05:32:54;8.00;99.90
41557;DHT22;27720;51.992;5.890;2023-01-15T05:35:20;8.00;99.90
41557;DHT22;27720;51.992;5.890;2023-01-15T05:37:45;8.00;99.90
41557;DHT22;27720;51.992;5.890;2023-01-15T05:40:11;8.00;99.90
41557;DHT22;27720;51.992;5.890;2023-01-15T05:42:37;8.00;99.90
41557;DHT22;27720;51.992;5.890;2023-01-15T05:45:03;8.00;99.90
41557;DHT22;27720;51.992;5.890;2023-01-15T05:47:29;8.00;99.90
41557;DHT22;27720;51.992;5.890;2023-01-15T05:49:55;8.00;99.90
41557;DHT22;27720;51.992;5.890;2023-01-15T05:52:20;8.00;99.90
41557;DHT22;27720;51.992;5.890;2023-01-15T05:54:48;8.00;99.90
41557;DHT22;27720;51.992;5.890;2023-01-15T05:57:14;8.00;99.90
41557;DHT22;27720;51.992;5.890;2023-01-15T05:59:40;8.00;99.90
41557;DHT22;27720;51.992;5.890;2023-01-15T06:02:05;7.90;99.90
41557;DHT22;27720;51.992;5.890;2023-01-15T06:04:31;7.90;99.90
41557;DHT22;27720;51.992;5.890;2023-01-15T06:06:57;7.90;99.90
41557;DHT22;27720;51.992;5.890;2023-01-15T06:09:24;7.90;99.90
41557;DHT22;27720;51.992;5.890;2023-01-15T06:11:55;7.90;99.90
41557;DHT22;27720;51.992;5.890;2023-01-15T06:14:21;7.90;99.90
41557;DHT22;27720;51.992;5.890;2023-01-15T06:16:47;7.90;99.90
41557;DHT22;27720;51.992;5.890;2023-01-15T06:19:13;7.90;99.90
41557;DHT22;27720;51.992;5.890;2023-01-15T06:21:39;7.90;99.90
41557;DHT22;27720;51.992;5.890;2023-01-15T06:24:06;7.90;99.90
41557;DHT22;27720;51.992;5.890;2023-01-15T06:26:32;7.90;99.90
41557;DHT22;27720;51.992;5.890;2023-01-15T06:28:58;7.80;99.90
41557;DHT22;27720;51.992;5.890;2023-01-15T06:31:24;7.80;99.90
41557;DHT22;27720;51.992;5.890;2023-01-15T06:33:54;7.80;99.90
41557;DHT22;27720;51.992;5.890;2023-01-15T06:36:21;7.70;99.90
41557;DHT22;27720;51.992;5.890;2023-01-15T06:38:48;7.80;99.90
41557;DHT22;27720;51.992;5.890;2023-01-15T06:41:20;7.70;99.90
41557;DHT22;27720;51.992;5.890;2023-01-15T06:44:05;7.70;99.90
41557;DHT22;27720;51.992;5.890;2023-01-15T06:46:50;7.60;99.90
41557;DHT22;27720;51.992;5.890;2023-01-15T06:49:35;7.60;99.90
41557;DHT22;27720;51.992;5.890;2023-01-15T06:52:02;7.60;99.90
41557;DHT22;27720;51.992;5.890;2023-01-15T06:54:28;7.60;99.90
41557;DHT22;27720;51.992;5.890;2023-01-15T06:56:54;7.60;99.90
41557;DHT22;27720;51.992;5.890;2023-01-15T06:59:20;7.70;99.90
41557;DHT22;27720;51.992;5.890;2023-01-15T07:01:46;7.70;99.90
41557;DHT22;27720;51.992;5.890;2023-01-15T07:04:13;7.70;99.90
41557;DHT22;27720;51.992;5.890;2023-01-15T07:06:39;7.70;99.90
41557;DHT22;27720;51.992;5.890;2023-01-15T07:09:05;7.70;99.90
41557;DHT22;27720;51.992;5.890;2023-01-15T07:11:31;7.60;99.90
41557;DHT22;27720;51.992;5.890;2023-01-15T07:13:57;7.60;99.90
41557;DHT22;27720;51.992;5.890;2023-01-15T07:16:35;7.60;99.90
41557;DHT22;27720;51.992;5.890;2023-01-15T07:19:02;7.50;99.90
41557;DHT22;27720;51.992;5.890;2023-01-15T07:21:29;7.50;99.90
41557;DHT22;27720;51.992;5.890;2023-01-15T07:23:58;7.50;99.90
41557;DHT22;27720;51.992;5.890;2023-01-15T07:26:24;7.50;99.90
41557;DHT22;27720;51.992;5.890;2023-01-15T07:28:50;7.50;99.90
41557;DHT22;27720;51.992;5.890;2023-01-15T07:31:16;7.60;99.90
41557;DHT22;27720;51.992;5.890;2023-01-15T07:33:42;7.60;99.90
41557;DHT22;27720;51.992;5.890;2023-01-15T07:36:08;7.50;99.90
41557;DHT22;27720;51.992;5.890;2023-01-15T07:38:33;7.50;99.90
41557;DHT22;27720;51.992;5.890;2023-01-15T07:40:59;7.40;99.90
41557;DHT22;27720;51.992;5.890;2023-01-15T07:43:44;7.40;99.90
41557;DHT22;27720;51.992;5.890;2023-01-15T07:46:32;7.40;99.90
41557;DHT22;27720;51.992;5.890;2023-01-15T07:49:17;7.40;99.90
41557;DHT22;27720;51.992;5.890;2023-01-15T07:52:01;7.40;99.90
41557;DHT22;27720;51.992;5.890;2023-01-15T07:54:26;7.30;99.90
41557;DHT22;27720;51.992;5.890;2023-01-15T07:56:54;7.30;99.90
41557;DHT22;27720;51.992;5.890;2023-01-15T07:59:21;7.30;99.90
41557;DHT22;27720;51.992;5.890;2023-01-15T08:01:47;7.30;99.90
41557;DHT22;27720;51.992;5.890;2023-01-15T08:04:13;7.30;99.90
41557;DHT22;27720;51.992;5.890;2023-01-15T08:06:38;7.30;99.90
41557;DHT22;27720;51.992;5.890;2023-01-15T08:09:04;7.30;99.90
41557;DHT22;27720;51.992;5.890;2023-01-15T08:11:33;7.30;99.90
41557;DHT22;27720;51.992;5.890;2023-01-15T08:14:20;7.30;99.90
41557;DHT22;27720;51.992;5.890;2023-01-15T08:17:05;7.20;99.90
41557;DHT22;27720;51.992;5.890;2023-01-15T08:19:31;7.20;99.90
41557;DHT22;27720;51.992;5.890;2023-01-15T08:21:57;7.20;99.90
41557;DHT22;27720;51.992;5.890;2023-01-15T08:24:24;7.20;99.90
41557;DHT22;27720;51.992;5.890;2023-01-15T08:26:51;7.20;99.90
41557;DHT22;27720;51.992;5.890;2023-01-15T08:29:17;7.20;99.90
41557;DHT22;27720;51.992;5.890;2023-01-15T08:31:46;7.20;99.90
41557;DHT22;27720;51.992;5.890;2023-01-15T08:34:13;7.20;99.90
41557;DHT22;27720;51.992;5.890;2023-01-15T08:36:39;7.20;99.90
41557;DHT22;27720;51.992;5.890;2023-01-15T08:39:04;7.20;99.90
41557;DHT22;27720;51.992;5.890;2023-01-15T08:41:31;7.20;99.90
41557;DHT22;27720;51.992;5.890;2023-01-15T08:43:56;7.20;99.90
41557;DHT22;27720;51.992;5.890;2023-01-15T08:46:22;7.30;99.90
41557;DHT22;27720;51.992;5.890;2023-01-15T08:48:51;7.30;99.90
41557;DHT22;27720;51.992;5.890;2023-01-15T08:51:18;7.30;99.90
41557;DHT22;27720;51.992;5.890;2023-01-15T08:53:44;7.30;99.90
41557;DHT22;27720;51.992;5.890;2023-01-15T08:56:14;7.30;99.90
41557;DHT22;27720;51.992;5.890;2023-01-15T08:58:41;7.30;99.90
41557;DHT22;27720;51.992;5.890;2023-01-15T09:01:09;7.20;99.90
41557;DHT22;27720;51.992;5.890;2023-01-15T09:03:36;7.30;99.90
41557;DHT22;27720;51.992;5.890;2023-01-15T09:06:02;7.30;99.90
41557;DHT22;27720;51.992;5.890;2023-01-15T09:08:28;7.30;99.90
41557;DHT22;27720;51.992;5.890;2023-01-15T09:10:59;7.30;99.90
41557;DHT22;27720;51.992;5.890;2023-01-15T09:13:26;7.30;99.90
41557;DHT22;27720;51.992;5.890;2023-01-15T09:15:52;7.30;99.90
41557;DHT22;27720;51.992;5.890;2023-01-15T09:18:18;7.30;99.90
41557;DHT22;27720;51.992;5.890;2023-01-15T09:20:48;7.30;99.90
41557;DHT22;27720;51.992;5.890;2023-01-15T09:23:14;7.40;99.90
41557;DHT22;27720;51.992;5.890;2023-01-15T09:25:40;7.40;99.90
41557;DHT22;27720;51.992;5.890;2023-01-15T09:28:15;7.40;99.90
41557;DHT22;27720;51.992;5.890;2023-01-15T09:30:40;7.30;99.90
41557;DHT22;27720;51.992;5.890;2023-01-15T09:33:06;7.30;99.90
41557;DHT22;27720;51.992;5.890;2023-01-15T09:35:32;7.40;99.90
41557;DHT22;27720;51.992;5.890;2023-01-15T09:37:58;7.40;99.90
41557;DHT22;27720;51.992;5.890;2023-01-15T09:46:16;7.50;99.90
41557;DHT22;27720;51.992;5.890;2023-01-15T09:48:48;7.40;99.90
41557;DHT22;27720;51.992;5.890;2023-01-15T09:56:47;7.40;99.90
41557;DHT22;27720;51.992;5.890;2023-01-15T09:59:28;7.50;99.90
41557;DHT22;27720;51.992;5.890;2023-01-15T10:01:56;7.60;99.90
41557;DHT22;27720;51.992;5.890;2023-01-15T10:04:46;7.60;99.90
41557;DHT22;27720;51.992;5.890;2023-01-15T10:07:32;7.60;99.90
41557;DHT22;27720;51.992;5.890;2023-01-15T10:10:05;7.60;99.90
41557;DHT22;27720;51.992;5.890;2023-01-15T10:12:32;7.60;99.90
41557;DHT22;27720;51.992;5.890;2023-01-15T10:15:40;7.70;99.90
41557;DHT22;27720;51.992;5.890;2023-01-15T10:18:23;7.80;99.90
41557;DHT22;27720;51.992;5.890;2023-01-15T10:23:58;7.80;99.90
41557;DHT22;27720;51.992;5.890;2023-01-15T10:29:27;7.80;99.90
41557;DHT22;27720;51.992;5.890;2023-01-15T10:37:47;7.90;99.90
41557;DHT22;27720;51.992;5.890;2023-01-15T10:45:57;8.00;99.90
41557;DHT22;27720;51.992;5.890;2023-01-15T10:50:57;8.20;99.90
41557;DHT22;27720;51.992;5.890;2023-01-15T10:53:39;8.20;99.90
41557;DHT22;27720;51.992;5.890;2023-01-15T10:59:32;8.40;99.90
41557;DHT22;27720;51.992;5.890;2023-01-15T11:02:00;8.40;99.90
41557;DHT22;27720;51.992;5.890;2023-01-15T11:04:30;8.40;99.90
41557;DHT22;27720;51.992;5.890;2023-01-15T11:06:59;8.50;99.90
41557;DHT22;27720;51.992;5.890;2023-01-15T11:09:27;8.50;99.90
41557;DHT22;27720;51.992;5.890;2023-01-15T11:12:38;8.50;99.90
41557;DHT22;27720;51.992;5.890;2023-01-15T11:15:21;8.50;99.90
41557;DHT22;27720;51.992;5.890;2023-01-15T11:18:18;8.50;99.70
41557;DHT22;27720;51.992;5.890;2023-01-15T11:21:10;8.50;99.20
41557;DHT22;27720;51.992;5.890;2023-01-15T11:23:36;8.60;99.10
41557;DHT22;27720;51.992;5.890;2023-01-15T11:26:02;8.60;99.80
41557;DHT22;27720;51.992;5.890;2023-01-15T11:28:39;8.70;99.70
41557;DHT22;27720;51.992;5.890;2023-01-15T11:31:07;8.70;99.90
41557;DHT22;27720;51.992;5.890;2023-01-15T11:33:33;8.70;99.70
41557;DHT22;27720;51.992;5.890;2023-01-15T11:36:03;8.70;99.40
41557;DHT22;27720;51.992;5.890;2023-01-15T11:38:46;8.70;99.40
41557;DHT22;27720;51.992;5.890;2023-01-15T11:41:30;8.70;99.70
41557;DHT22;27720;51.992;5.890;2023-01-15T11:44:17;8.70;99.60
41557;DHT22;27720;51.992;5.890;2023-01-15T11:47:01;8.80;99.70
41557;DHT22;27720;51.992;5.890;2023-01-15T11:50:18;8.80;99.90
41557;DHT22;27720;51.992;5.890;2023-01-15T11:53:03;8.80;99.80
41557;DHT22;27720;51.992;5.890;2023-01-15T11:55:32;8.70;99.90
41557;DHT22;27720;51.992;5.890;2023-01-15T11:57:58;8.70;99.90
41557;DHT22;27720;51.992;5.890;2023-01-15T12:00:27;8.70;99.90
41557;DHT22;27720;51.992;5.890;2023-01-15T12:03:00;8.60;99.90
41557;DHT22;27720;51.992;5.890;2023-01-15T12:05:31;8.60;99.90
41557;DHT22;27720;51.992;5.890;2023-01-15T12:08:02;8.50;99.90
41557;DHT22;27720;51.992;5.890;2023-01-15T12:10:36;8.50;99.90
41557;DHT22;27720;51.992;5.890;2023-01-15T12:24:21;8.30;99.90
41557;DHT22;27720;51.992;5.890;2023-01-15T12:29:53;8.30;99.90
41557;DHT22;27720;51.992;5.890;2023-01-15T12:32:37;8.40;99.90
41557;DHT22;27720;51.992;5.890;2023-01-15T12:40:48;8.60;99.90
41557;DHT22;27720;51.992;5.890;2023-01-15T12:43:22;8.50;99.90
41557;DHT22;27720;51.992;5.890;2023-01-15T12:46:11;8.50;99.90
41557;DHT22;27720;51.992;5.890;2023-01-15T12:48:44;8.40;99.90
41557;DHT22;27720;51.992;5.890;2023-01-15T12:51:15;8.30;99.90
41557;DHT22;27720;51.992;5.890;2023-01-15T12:53:50;8.30;99.90
41557;DHT22;27720;51.992;5.890;2023-01-15T12:56:41;8.30;99.90
41557;DHT22;27720;51.992;5.890;2023-01-15T13:10:14;8.10;99.90
41557;DHT22;27720;51.992;5.890;2023-01-15T13:12:41;8.10;99.90
41557;DHT22;27720;51.992;5.890;2023-01-15T13:15:15;8.10;99.90
41557;DHT22;27720;51.992;5.890;2023-01-15T13:18:34;8.20;99.90
41557;DHT22;27720;51.992;5.890;2023-01-15T13:26:24;8.20;99.90
41557;DHT22;27720;51.992;5.890;2023-01-15T13:31:43;8.30;99.90
41557;DHT22;27720;51.992;5.890;2023-01-15T13:34:30;8.30;99.90
41557;DHT22;27720;51.992;5.890;2023-01-15T13:37:39;8.30;99.90
41557;DHT22;27720;51.992;5.890;2023-01-15T13:39:59;8.30;99.90
41557;DHT22;27720;51.992;5.890;2023-01-15T13:42:29;8.30;99.90
41557;DHT22;27720;51.992;5.890;2023-01-15T13:44:56;8.30;99.90
41557;DHT22;27720;51.992;5.890;2023-01-15T13:47:27;8.30;99.90
41557;DHT22;27720;51.992;5.890;2023-01-15T13:50:02;8.40;99.90
41557;DHT22;27720;51.992;5.890;2023-01-15T13:55:08;8.30;99.90
41557;DHT22;27720;51.992;5.890;2023-01-15T13:57:37;8.30;99.90
41557;DHT22;27720;51.992;5.890;2023-01-15T14:00:05;8.30;99.90
41557;DHT22;27720;51.992;5.890;2023-01-15T14:02:37;8.30;99.90
41557;DHT22;27720;51.992;5.890;2023-01-15T14:05:31;8.30;99.90
41557;DHT22;27720;51.992;5.890;2023-01-15T14:07:59;8.30;99.90
41557;DHT22;27720;51.992;5.890;2023-01-15T14:10:33;8.30;99.90
41557;DHT22;27720;51.992;5.890;2023-01-15T14:18:15;8.20;99.90
41557;DHT22;27720;51.992;5.890;2023-01-15T14:23:57;8.20;99.90
41557;DHT22;27720;51.992;5.890;2023-01-15T14:26:53;8.10;99.90
41557;DHT22;27720;51.992;5.890;2023-01-15T14:29:50;8.10;99.90
41557;DHT22;27720;51.992;5.890;2023-01-15T14:35:43;8.00;99.90
41557;DHT22;27720;51.992;5.890;2023-01-15T14:38:15;8.00;99.90
41557;DHT22;27720;51.992;5.890;2023-01-15T14:40:56;8.10;99.90
41557;DHT22;27720;51.992;5.890;2023-01-15T14:43:28;8.10;99.90
41557;DHT22;27720;51.992;5.890;2023-01-15T14:45:54;8.10;99.90
41557;DHT22;27720;51.992;5.890;2023-01-15T14:48:33;8.10;99.90
41557;DHT22;27720;51.992;5.890;2023-01-15T14:51:15;8.10;99.90
41557;DHT22;27720;51.992;5.890;2023-01-15T14:53:46;8.10;99.90
41557;DHT22;27720;51.992;5.890;2023-01-15T14:56:19;8.10;99.90
41557;DHT22;27720;51.992;5.890;2023-01-15T14:58:58;8.10;99.90
41557;DHT22;27720;51.992;5.890;2023-01-15T15:01:43;8.10;99.90
41557;DHT22;27720;51.992;5.890;2023-01-15T15:04:20;8.10;99.90
41557;DHT22;27720;51.992;5.890;2023-01-15T15:06:53;8.10;99.90
41557;DHT22;27720;51.992;5.890;2023-01-15T15:09:46;8.10;99.90
41557;DHT22;27720;51.992;5.890;2023-01-15T15:15:21;8.20;99.90
41557;DHT22;27720;51.992;5.890;2023-01-15T15:20:59;8.20;99.90
41557;DHT22;27720;51.992;5.890;2023-01-15T15:26:01;8.20;99.90
41557;DHT22;27720;51.992;5.890;2023-01-15T15:28:28;8.20;99.90
41557;DHT22;27720;51.992;5.890;2023-01-15T15:30:56;8.20;99.90
41557;DHT22;27720;51.992;5.890;2023-01-15T15:33:38;8.10;99.90
41557;DHT22;27720;51.992;5.890;2023-01-15T15:36:06;8.10;99.90
41557;DHT22;27720;51.992;5.890;2023-01-15T15:38:32;8.00;99.90
41557;DHT22;27720;51.992;5.890;2023-01-15T15:41:01;8.00;99.90
41557;DHT22;27720;51.992;5.890;2023-01-15T15:43:48;8.00;99.90
41557;DHT22;27720;51.992;5.890;2023-01-15T15:46:36;7.90;99.90
41557;DHT22;27720;51.992;5.890;2023-01-15T15:49:20;7.80;99.90
41557;DHT22;27720;51.992;5.890;2023-01-15T15:51:50;7.80;99.90
41557;DHT22;27720;51.992;5.890;2023-01-15T15:56:58;7.70;99.90
41557;DHT22;27720;51.992;5.890;2023-01-15T15:59:33;7.70;99.90
41557;DHT22;27720;51.992;5.890;2023-01-15T16:04:33;7.70;99.90
41557;DHT22;27720;51.992;5.890;2023-01-15T16:06:58;7.70;99.90
41557;DHT22;27720;51.992;5.890;2023-01-15T16:09:24;7.70;99.90
41557;DHT22;27720;51.992;5.890;2023-01-15T16:11:51;7.80;99.90
41557;DHT22;27720;51.992;5.890;2023-01-15T16:14:19;7.80;99.90
41557;DHT22;27720;51.992;5.890;2023-01-15T16:16:47;7.90;99.90
41557;DHT22;27720;51.992;5.890;2023-01-15T16:19:19;7.90;99.90
41557;DHT22;27720;51.992;5.890;2023-01-15T16:21:46;7.90;99.90
41557;DHT22;27720;51.992;5.890;2023-01-15T16:24:25;7.90;99.90
41557;DHT22;27720;51.992;5.890;2023-01-15T16:27:02;8.00;99.90
41557;DHT22;27720;51.992;5.890;2023-01-15T16:29:32;8.00;99.90
41557;DHT22;27720;51.992;5.890;2023-01-15T16:31:59;8.00;99.90
41557;DHT22;27720;51.992;5.890;2023-01-15T16:34:33;8.00;99.90
41557;DHT22;27720;51.992;5.890;2023-01-15T16:37:00;8.00;99.90
41557;DHT22;27720;51.992;5.890;2023-01-15T16:39:44;8.00;99.90
41557;DHT22;27720;51.992;5.890;2023-01-15T16:42:34;8.00;99.90
41557;DHT22;27720;51.992;5.890;2023-01-15T16:45:03;8.00;99.90
41557;DHT22;27720;51.992;5.890;2023-01-15T16:47:33;7.90;99.90
41557;DHT22;27720;51.992;5.890;2023-01-15T16:52:51;8.00;99.90
41557;DHT22;27720;51.992;5.890;2023-01-15T17:00:37;8.00;99.90
41557;DHT22;27720;51.992;5.890;2023-01-15T17:03:11;8.00;99.90
41557;DHT22;27720;51.992;5.890;2023-01-15T17:05:38;8.10;99.90
41557;DHT22;27720;51.992;5.890;2023-01-15T17:08:04;8.00;99.90
41557;DHT22;27720;51.992;5.890;2023-01-15T17:10:30;8.00;99.90
41557;DHT22;27720;51.992;5.890;2023-01-15T17:12:56;8.00;99.90
41557;DHT22;27720;51.992;5.890;2023-01-15T17:17:52;8.00;99.90
41557;DHT22;27720;51.992;5.890;2023-01-15T17:20:20;8.00;99.90
41557;DHT22;27720;51.992;5.890;2023-01-15T17:22:49;8.00;99.90
41557;DHT22;27720;51.992;5.890;2023-01-15T17:27:47;8.00;99.90
41557;DHT22;27720;51.992;5.890;2023-01-15T17:30:13;8.00;99.90
41557;DHT22;27720;51.992;5.890;2023-01-15T17:32:39;8.00;99.90
41557;DHT22;27720;51.992;5.890;2023-01-15T17:35:27;8.00;99.90
41557;DHT22;27720;51.992;5.890;2023-01-15T17:37:54;8.00;99.90
41557;DHT22;27720;51.992;5.890;2023-01-15T17:40:20;8.00;99.90
41557;DHT22;27720;51.992;5.890;2023-01-15T17:42:46;7.90;99.90
41557;DHT22;27720;51.992;5.890;2023-01-15T17:45:24;7.90;99.90
41557;DHT22;27720;51.992;5.890;2023-01-15T17:47:50;7.90;99.90
41557;DHT22;27720;51.992;5.890;2023-01-15T17:50:16;7.90;99.90
41557;DHT22;27720;51.992;5.890;2023-01-15T17:52:43;7.90;99.90
41557;DHT22;27720;51.992;5.890;2023-01-15T17:55:11;7.90;99.90
41557;DHT22;27720;51.992;5.890;2023-01-15T17:57:55;7.90;99.90
41557;DHT22;27720;51.992;5.890;2023-01-15T18:00:40;7.80;99.90
41557;DHT22;27720;51.992;5.890;2023-01-15T18:03:24;7.80;99.90
41557;DHT22;27720;51.992;5.890;2023-01-15T18:06:11;7.80;99.90
41557;DHT22;27720;51.992;5.890;2023-01-15T18:08:39;7.70;99.90
41557;DHT22;27720;51.992;5.890;2023-01-15T18:11:05;7.70;99.90
41557;DHT22;27720;51.992;5.890;2023-01-15T18:13:31;7.60;99.90
41557;DHT22;27720;51.992;5.890;2023-01-15T18:15:57;7.60;99.90
41557;DHT22;27720;51.992;5.890;2023-01-15T18:18:25;7.60;99.90
41557;DHT22;27720;51.992;5.890;2023-01-15T18:20:51;7.60;99.90
41557;DHT22;27720;51.992;5.890;2023-01-15T18:23:17;7.60;99.90
41557;DHT22;27720;51.992;5.890;2023-01-15T18:25:43;7.60;99.90
41557;DHT22;27720;51.992;5.890;2023-01-15T18:28:13;7.60;99.90
41557;DHT22;27720;51.992;5.890;2023-01-15T18:30:39;7.60;99.90